Time;durP1;ratioP1;P1;durP2;ratioP2;P2;SDS_P1;SDS_P2;PMS_P1;PMS_P2;Temp;Humidity;BMP_temperature;BMP_pressure;BME280_temperature;BME280_humidity;BME280_pressure;Samples;Min_cycle;Max_cycle;Signal;HPM_P1;HPM_P2
2021/08/07 00:01:17;;;;;;;;;;;;;;;;;;5050827;28;20000;-72
2021/08/07 00:03:43;;;;;;;;;;;;;;;;;;5033186;28;19999;-72
2021/08/07 00:06:08;;;;;;;;;;;;;;;;;;5051105;28;19913;-72
2021/08/07 00:08:34;;;;;;;;;;;;;;;;;;5051103;28;19913;-72
2021/08/07 00:11:00;;;;;;;;;;;;;;;;;;5050826;28;19996;-72
2021/08/07 00:13:26;;;;;;;;;;;;;;;;;;5051551;28;20291;-72
2021/08/07 00:15:52;;;;;;;;;;;;;;;;;;5051282;28;19967;-72
2021/08/07 00:18:18;;;;;;;;;;;;;;;;;;5032702;28;20007;-72
2021/08/07 00:20:44;;;;;;;;;;;;;;;;;;5051204;28;19917;-72
2021/08/07 00:23:09;;;;;;;;;;;;;;;;;;5054421;28;19928;-71
2021/08/07 00:25:35;;;;;;;;;;;;;;;;;;5054849;28;20261;-72
2021/08/07 00:28:01;;;;;;;;;;;;;;;;;;5054419;28;19916;-72
2021/08/07 00:30:27;;;;;;;;;;;;;;;;;;5054347;28;19912;-72
2021/08/07 00:32:53;;;;;;;;;;;;;;;;;;5054627;28;19921;-72
2021/08/07 00:35:19;;;;;;;;;;;;;;;;;;5054291;28;19931;-72
2021/08/07 00:37:45;;;;;;;;;;;;;;;;;;5054938;28;20399;-72
2021/08/07 00:40:11;;;;;;;;;;;;;;;;;;5053760;28;19916;-72
2021/08/07 00:42:36;;;;;;;;;;;;;;;;;;5054221;28;19920;-72
2021/08/07 00:45:02;;;;;;;;;;;;;;;;;;5054402;28;19952;-72
2021/08/07 00:47:28;;;;;;;;;;;;;;;;;;5054306;28;19913;-72
2021/08/07 00:49:54;;;;;;;;;;;;;;;;;;5053805;28;20327;-72
2021/08/07 00:52:20;;;;;;;;;;;;;;;;;;5054495;28;20008;-72
2021/08/07 00:54:46;;;;;;;;;;;;;;;;;;5054255;28;20399;-72
2021/08/07 00:57:12;;;;;;;;;;;;;;;;;;5053910;28;19986;-72
2021/08/07 00:59:37;;;;;;;;;;;;;;;;;;5054117;28;20012;-72
2021/08/07 01:02:03;;;;;;;;;;;;;;;;;;5053486;28;19921;-72
2021/08/07 01:04:29;;;;;;;;;;;;;;;;;;5054631;28;19913;-72
2021/08/07 01:06:55;;;;;;;;;;;;;;;;;;5053914;28;19920;-72
2021/08/07 01:09:21;;;;;;;;;;;;;;;;;;5053594;28;19913;-72
2021/08/07 01:11:47;;;;;;;;;;;;;;;;;;5053615;28;19960;-72
2021/08/07 01:14:13;;;;;;;;;;;;;;;;;;5053476;28;19974;-72
2021/08/07 01:16:39;;;;;;;;;;;;;;;;;;5039092;28;19916;-72
2021/08/07 01:19:05;;;;;;;;;;;;;;;;;;5053328;28;20025;-72
2021/08/07 01:21:30;;;;;;;;;;;;;;;;;;5053612;28;19917;-72
2021/08/07 01:23:56;;;;;;;;;;;;;;;;;;5053197;28;19948;-72
2021/08/07 01:26:22;;;;;;;;;;;;;;;;;;5053305;28;20326;-72
2021/08/07 01:28:48;;;;;;;;;;;;;;;;;;5053331;28;19908;-72
2021/08/07 01:31:14;;;;;;;;;;;;;;;;;;5053939;28;19987;-72
2021/08/07 01:33:40;;;;;;;;;;;;;;;;;;5052958;28;19947;-72
2021/08/07 01:36:06;;;;;;;;;;;;;;;;;;5052740;28;20003;-72
2021/08/07 01:38:32;;;;;;;;;;;;;;;;;;5053461;28;19912;-72
2021/08/07 01:40:57;;;;;;;;;;;;;;;;;;5053117;28;20000;-72
2021/08/07 01:43:23;;;;;;;;;;;;;;;;;;5051405;28;20004;-72
2021/08/07 01:45:49;;;;;;;;;;;;;;;;;;5052724;28;20335;-72
2021/08/07 01:48:15;;;;;;;;;;;;;;;;;;5053230;28;19913;-72
2021/08/07 01:50:41;;;;;;;;;;;;;;;;;;5053124;28;19913;-72
2021/08/07 01:53:07;;;;;;;;;;;;;;;;;;5053112;28;20335;-72
2021/08/07 01:55:33;;;;;;;;;;;;;;;;;;5052524;28;20019;-72
2021/08/07 01:58:00;;;;;;;;;;;;;;;;;;5051996;28;20414;-72
2021/08/07 02:00:26;;;;;;;;;;;;;;;;;;5052937;28;20007;-72
2021/08/07 02:02:52;;;;;;;;;;;;;;;;;;5052505;28;19920;-72
2021/08/07 02:05:18;;;;;;;;;;;;;;;;;;5034652;28;19920;-72
2021/08/07 02:07:44;;;;;;;;;;;;;;;;;;5053191;28;19909;-72
2021/08/07 02:10:10;;;;;;;;;;;;;;;;;;5052829;28;19913;-72
2021/08/07 02:12:36;;;;;;;;;;;;;;;;;;5052622;28;19912;-72
2021/08/07 02:15:02;;;;;;;;;;;;;;;;;;5034566;28;19966;-72
2021/08/07 02:17:28;;;;;;;;;;;;;;;;;;5051261;28;20372;-72
2021/08/07 02:19:54;;;;;;;;;;;;;;;;;;5052635;28;19909;-72
2021/08/07 02:22:20;;;;;;;;;;;;;;;;;;5053069;28;19991;-72
2021/08/07 02:24:45;;;;;;;;;;;;;;;;;;5052260;28;19917;-72
2021/08/07 02:27:11;;;;;;;;;;;;;;;;;;5052058;28;19917;-72
2021/08/07 02:29:39;;;;;;;;;;;;;;;;;;5051984;28;20206;-72
2021/08/07 02:32:05;;;;;;;;;;;;;;;;;;5052358;28;19974;-72
2021/08/07 02:34:30;;;;;;;;;;;;;;;;;;5053043;28;20015;-72
2021/08/07 02:36:56;;;;;;;;;;;;;;;;;;5051884;28;19913;-72
2021/08/07 02:39:22;;;;;;;;;;;;;;;;;;5051986;28;19913;-72
2021/08/07 02:41:48;;;;;;;;;;;;;;;;;;5051867;28;19913;-72
2021/08/07 02:44:14;;;;;;;;;;;;;;;;;;5051189;28;19966;-72
2021/08/07 02:46:40;;;;;;;;;;;;;;;;;;5052751;28;20015;-72
2021/08/07 02:49:06;;;;;;;;;;;;;;;;;;5051991;28;19939;-72
2021/08/07 02:51:32;;;;;;;;;;;;;;;;;;5052158;28;19916;-72
2021/08/07 02:53:58;;;;;;;;;;;;;;;;;;5051117;28;19964;-72
2021/08/07 02:56:23;;;;;;;;;;;;;;;;;;5052004;28;19943;-72
2021/08/07 02:58:49;;;;;;;;;;;;;;;;;;5052278;28;19961;-72
2021/08/07 03:01:15;;;;;;;;;;;;;;;;;;5051907;28;20336;-72
2021/08/07 03:03:41;;;;;;;;;;;;;;;;;;5051308;28;19916;-72
2021/08/07 03:06:07;;;;;;;;;;;;;;;;;;5051756;28;20288;-72
2021/08/07 03:08:33;;;;;;;;;;;;;;;;;;5051698;28;19919;-72
2021/08/07 03:10:59;;;;;;;;;;;;;;;;;;5051443;28;20357;-72
2021/08/07 03:13:25;;;;;;;;;;;;;;;;;;5052011;28;19971;-72
2021/08/07 03:15:50;;;;;;;;;;;;;;;;;;5051470;28;19913;-72
2021/08/07 03:18:16;;;;;;;;;;;;;;;;;;5051557;28;20257;-72
2021/08/07 03:20:42;;;;;;;;;;;;;;;;;;5051025;28;19913;-72
2021/08/07 03:23:08;;;;;;;;;;;;;;;;;;5051337;28;20264;-72
2021/08/07 03:25:34;;;;;;;;;;;;;;;;;;5052157;28;19958;-72
2021/08/07 03:28:01;;;;;;;;;;;;;;;;;;5051552;28;19943;-72
2021/08/07 03:30:27;;;;;;;;;;;;;;;;;;5051350;28;19936;-72
2021/08/07 03:32:53;;;;;;;;;;;;;;;;;;5051174;28;20371;-72
2021/08/07 03:35:19;;;;;;;;;;;;;;;;;;5051326;28;19917;-71
2021/08/07 03:37:45;;;;;;;;;;;;;;;;;;5051510;28;19908;-71
2021/08/07 03:40:10;;;;;;;;;;;;;;;;;;5051422;28;20018;-71
2021/08/07 03:42:37;;;;;;;;;;;;;;;;;;5051416;28;19919;-71
2021/08/07 03:45:03;;;;;;;;;;;;;;;;;;5051141;28;19913;-71
2021/08/07 03:47:29;;;;;;;;;;;;;;;;;;5050960;28;19916;-71
2021/08/07 03:49:55;;;;;;;;;;;;;;;;;;5051597;28;19960;-71
2021/08/07 03:52:21;;;;;;;;;;;;;;;;;;5051589;28;20402;-71
2021/08/07 03:54:47;;;;;;;;;;;;;;;;;;5051122;28;19928;-71
2021/08/07 03:57:12;;;;;;;;;;;;;;;;;;5055228;28;19912;-71
2021/08/07 03:59:38;;;;;;;;;;;;;;;;;;5054916;28;19913;-71
2021/08/07 04:02:04;;;;;;;;;;;;;;;;;;5055324;28;19920;-71
2021/08/07 04:04:30;;;;;;;;;;;;;;;;;;5055722;28;20465;-71
2021/08/07 04:06:56;;;;;;;;;;;;;;;;;;5054796;28;19913;-71
2021/08/07 04:09:22;;;;;;;;;;;;;;;;;;5055111;28;20360;-71
2021/08/07 04:11:48;;;;;;;;;;;;;;;;;;5054404;28;19917;-71
2021/08/07 04:14:14;;;;;;;;;;;;;;;;;;5055049;28;19996;-71
2021/08/07 04:16:39;;;;;;;;;;;;;;;;;;5039995;28;19916;-71
2021/08/07 04:19:05;;;;;;;;;;;;;;;;;;5054361;28;19919;-71
2021/08/07 04:21:31;;;;;;;;;;;;;;;;;;5054192;28;20347;-71
2021/08/07 04:23:57;;;;;;;;;;;;;;;;;;5054864;28;19966;-71
2021/08/07 04:26:23;;;;;;;;;;;;;;;;;;5054336;28;20299;-71
2021/08/07 04:28:49;;;;;;;;;;;;;;;;;;5054976;28;19909;-71
2021/08/07 04:31:15;;;;;;;;;;;;;;;;;;5054797;28;19909;-71
2021/08/07 04:33:41;;;;;;;;;;;;;;;;;;5054307;28;20012;-71
2021/08/07 04:36:06;;;;;;;;;;;;;;;;;;5054190;28;19920;-71
2021/08/07 04:38:32;;;;;;;;;;;;;;;;;;5054541;28;19912;-71
2021/08/07 04:40:58;;;;;;;;;;;;;;;;;;5054464;28;19909;-71
2021/08/07 04:43:24;;;;;;;;;;;;;;;;;;5054719;28;19913;-71
2021/08/07 04:45:50;;;;;;;;;;;;;;;;;;5053913;28;19917;-71
2021/08/07 04:48:16;;;;;;;;;;;;;;;;;;5054457;28;19912;-71
2021/08/07 04:50:42;;;;;;;;;;;;;;;;;;5054103;28;19913;-71
2021/08/07 04:53:08;;;;;;;;;;;;;;;;;;5053743;28;19921;-71
2021/08/07 04:55:33;;;;;;;;;;;;;;;;;;5054738;28;19921;-71
2021/08/07 04:57:59;;;;;;;;;;;;;;;;;;5053695;28;19913;-71
2021/08/07 05:00:25;;;;;;;;;;;;;;;;;;5054058;28;19966;-71
2021/08/07 05:02:51;;;;;;;;;;;;;;;;;;5053994;28;19913;-71
2021/08/07 05:05:17;;;;;;;;;;;;;;;;;;5053327;28;20004;-71
2021/08/07 05:07:43;;;;;;;;;;;;;;;;;;5053956;28;19978;-71
2021/08/07 05:10:09;;;;;;;;;;;;;;;;;;5053723;28;20003;-71
2021/08/07 05:12:35;;;;;;;;;;;;;;;;;;5053404;28;19920;-70
2021/08/07 05:15:01;;;;;;;;;;;;;;;;;;5053608;28;19920;-71
2021/08/07 05:17:27;;;;;;;;;;;;;;;;;;5053812;28;19913;-70
2021/08/07 05:19:52;;;;;;;;;;;;;;;;;;5053329;28;20378;-70
2021/08/07 05:22:18;;;;;;;;;;;;;;;;;;5053825;28;20359;-70
2021/08/07 05:24:44;;;;;;;;;;;;;;;;;;5053646;28;19959;-70
2021/08/07 05:27:10;;;;;;;;;;;;;;;;;;5053639;28;20288;-70
2021/08/07 05:29:36;;;;;;;;;;;;;;;;;;5053496;28;19920;-70
2021/08/07 05:32:02;;;;;;;;;;;;;;;;;;5053193;28;19908;-70
2021/08/07 05:34:28;;;;;;;;;;;;;;;;;;5053868;28;19917;-70
2021/08/07 05:36:53;;;;;;;;;;;;;;;;;;5052851;28;19917;-70
2021/08/07 05:39:19;;;;;;;;;;;;;;;;;;5053180;28;19924;-70
2021/08/07 05:41:45;;;;;;;;;;;;;;;;;;5053112;28;19956;-70
2021/08/07 05:44:11;;;;;;;;;;;;;;;;;;5053456;28;19920;-70
2021/08/07 05:46:37;;;;;;;;;;;;;;;;;;5053504;28;19909;-70
2021/08/07 05:49:03;;;;;;;;;;;;;;;;;;5052899;28;19917;-70
2021/08/07 05:51:32;;;;;;;;;;;;;;;;;;5035252;28;20353;-70
2021/08/07 05:53:58;;;;;;;;;;;;;;;;;;5052623;28;20368;-70
2021/08/07 05:56:24;;;;;;;;;;;;;;;;;;5053125;28;20008;-70
2021/08/07 05:58:50;;;;;;;;;;;;;;;;;;5053309;28;19913;-70
2021/08/07 06:01:16;;;;;;;;;;;;;;;;;;5053075;28;19909;-69
2021/08/07 06:03:42;;;;;;;;;;;;;;;;;;5052632;28;20506;-69
2021/08/07 06:06:08;;;;;;;;;;;;;;;;;;5052887;28;19970;-69
2021/08/07 06:08:33;;;;;;;;;;;;;;;;;;5052374;28;19956;-69
2021/08/07 06:10:59;;;;;;;;;;;;;;;;;;5052771;28;20279;-69
2021/08/07 06:13:25;;;;;;;;;;;;;;;;;;5053314;28;19917;-69
2021/08/07 06:15:51;;;;;;;;;;;;;;;;;;5052254;28;20319;-70
2021/08/07 06:18:17;;;;;;;;;;;;;;;;;;5051904;28;20019;-70
2021/08/07 06:20:43;;;;;;;;;;;;;;;;;;5052019;28;19943;-69
2021/08/07 06:23:09;;;;;;;;;;;;;;;;;;5052236;28;20008;-70
2021/08/07 06:25:35;;;;;;;;;;;;;;;;;;5052671;28;19909;-69
2021/08/07 06:28:01;;;;;;;;;;;;;;;;;;5052375;28;19913;-70
2021/08/07 06:30:27;;;;;;;;;;;;;;;;;;5052095;28;19967;-70
2021/08/07 06:32:52;;;;;;;;;;;;;;;;;;5051971;28;20348;-70
2021/08/07 06:35:18;;;;;;;;;;;;;;;;;;5051972;28;19983;-70
2021/08/07 06:37:44;;;;;;;;;;;;;;;;;;5052752;28;19915;-69
2021/08/07 06:40:10;;;;;;;;;;;;;;;;;;5052504;28;19966;-70
2021/08/07 06:42:36;;;;;;;;;;;;;;;;;;5052060;28;19913;-69
2021/08/07 06:45:02;;;;;;;;;;;;;;;;;;5051260;28;20284;-69
2021/08/07 06:47:28;;;;;;;;;;;;;;;;;;5034307;28;19944;-70
2021/08/07 06:49:54;;;;;;;;;;;;;;;;;;5034422;28;19920;-70
2021/08/07 06:52:19;;;;;;;;;;;;;;;;;;5052648;28;19909;-70
2021/08/07 06:54:45;;;;;;;;;;;;;;;;;;5051196;28;20441;-70
2021/08/07 06:57:11;;;;;;;;;;;;;;;;;;5051752;28;19952;-70
2021/08/07 06:59:37;;;;;;;;;;;;;;;;;;5051898;28;19913;-70
2021/08/07 07:02:03;;;;;;;;;;;;;;;;;;5052035;28;19915;-70
2021/08/07 07:04:29;;;;;;;;;;;;;;;;;;5034262;28;20372;-70
2021/08/07 07:06:57;;;;;;;;;;;;;;;;;;5051332;28;20376;-70
2021/08/07 07:09:23;;;;;;;;;;;;;;;;;;5051835;28;20358;-70
2021/08/07 07:11:48;;;;;;;;;;;;;;;;;;5051174;28;19964;-70
2021/08/07 07:14:16;;;;;;;;;;;;;;;;;;5051211;28;19921;-70
2021/08/07 07:16:42;;;;;;;;;;;;;;;;;;5052591;28;20375;-61
2021/08/07 07:19:08;;;;;;;;;;;;;;;;;;5051648;28;19963;-61
2021/08/07 07:21:34;;;;;;;;;;;;;;;;;;5051678;28;19913;-61
2021/08/07 07:23:59;;;;;;;;;;;;;;;;;;5051444;28;19912;-62
2021/08/07 07:26:27;;;;;;;;;;;;;;;;;;5051081;28;20340;-61
2021/08/07 07:28:53;;;;;;;;;;;;;;;;;;5051628;28;20382;-61
2021/08/07 07:31:19;;;;;;;;;;;;;;;;;;5054392;28;19909;-61
2021/08/07 07:33:45;;;;;;;;;;;;;;;;;;5055200;28;19933;-62
2021/08/07 07:36:10;;;;;;;;;;;;;;;;;;5055833;28;19956;-61
2021/08/07 07:38:36;;;;;;;;;;;;;;;;;;5055445;28;20249;-61
2021/08/07 07:41:02;;;;;;;;;;;;;;;;;;5037783;28;19909;-61
2021/08/07 07:43:28;;;;;;;;;;;;;;;;;;5055791;28;20012;-61
2021/08/07 07:45:54;;;;;;;;;;;;;;;;;;5055602;28;20004;-61
2021/08/07 07:48:20;;;;;;;;;;;;;;;;;;5054760;28;20287;-61
2021/08/07 07:50:46;;;;;;;;;;;;;;;;;;5055621;28;19920;-61
2021/08/07 07:53:12;;;;;;;;;;;;;;;;;;5055424;28;19921;-61
2021/08/07 07:55:38;;;;;;;;;;;;;;;;;;5055663;28;19927;-60
2021/08/07 07:58:04;;;;;;;;;;;;;;;;;;5054552;28;19913;-61
2021/08/07 08:00:30;;;;;;;;;;;;;;;;;;5055281;28;19970;-62
2021/08/07 08:02:55;;;;;;;;;;;;;;;;;;5055365;28;19992;-61
2021/08/07 08:05:21;;;;;;;;;;;;;;;;;;5054833;28;19913;-62
2021/08/07 08:07:47;;;;;;;;;;;;;;;;;;5055425;28;19908;-62
2021/08/07 08:10:15;;;;;;;;;;;;;;;;;;5055115;28;20007;-62
2021/08/07 08:12:41;;;;;;;;;;;;;;;;;;5054243;28;20299;-60
2021/08/07 08:15:07;;;;;;;;;;;;;;;;;;5054944;28;19920;-61
2021/08/07 08:17:33;;;;;;;;;;;;;;;;;;5054875;28;19919;-61
2021/08/07 08:19:59;;;;;;;;;;;;;;;;;;5054908;28;19909;-61
2021/08/07 08:22:25;;;;;;;;;;;;;;;;;;5055242;28;20003;-61
2021/08/07 08:24:51;;;;;;;;;;;;;;;;;;5054412;28;19917;-62
2021/08/07 08:27:18;;;;;;;;;;;;;;;;;;5054526;28;19909;-61
2021/08/07 08:29:44;;;;;;;;;;;;;;;;;;5054660;28;19913;-61
2021/08/07 08:32:10;;;;;;;;;;;;;;;;;;5054356;28;19946;-61
2021/08/07 08:34:36;;;;;;;;;;;;;;;;;;5055208;28;20395;-60
2021/08/07 08:37:02;;;;;;;;;;;;;;;;;;5054169;28;19916;-61
2021/08/07 08:39:28;;;;;;;;;;;;;;;;;;5054573;28;19919;-61
2021/08/07 08:41:54;;;;;;;;;;;;;;;;;;5053189;28;20141;-61
2021/08/07 08:44:20;;;;;;;;;;;;;;;;;;5054076;28;19913;-61
2021/08/07 08:46:45;;;;;;;;;;;;;;;;;;5054700;28;19963;-61
2021/08/07 08:49:11;;;;;;;;;;;;;;;;;;5054718;28;19959;-61
2021/08/07 08:51:37;;;;;;;;;;;;;;;;;;5053917;28;20344;-61
2021/08/07 08:54:03;;;;;;;;;;;;;;;;;;5054108;28;19927;-61
2021/08/07 08:56:34;;;;;;;;;;;;;;;;;;5053872;28;20016;-62
2021/08/07 08:59:01;;;;;;;;;;;;;;;;;;5053967;28;19991;-61
2021/08/07 09:01:27;;;;;;;;;;;;;;;;;;5054457;28;19971;-62
2021/08/07 09:03:53;;;;;;;;;;;;;;;;;;5054197;28;20372;-61
2021/08/07 09:06:19;;;;;;;;;;;;;;;;;;5053785;28;19917;-62
2021/08/07 09:08:45;;;;;;;;;;;;;;;;;;5053841;28;19960;-61
2021/08/07 09:11:11;;;;;;;;;;;;;;;;;;5053745;28;20408;-61
2021/08/07 09:13:36;;;;;;;;;;;;;;;;;;5054489;28;19917;-61
2021/08/07 09:16:02;;;;;;;;;;;;;;;;;;5053725;28;19919;-61
2021/08/07 09:18:28;;;;;;;;;;;;;;;;;;5053738;28;20399;-61
2021/08/07 09:20:54;;;;;;;;;;;;;;;;;;5053209;28;19913;-61
2021/08/07 09:23:20;;;;;;;;;;;;;;;;;;5053779;28;20355;-61
2021/08/07 09:25:46;;;;;;;;;;;;;;;;;;5053842;28;20352;-61
2021/08/07 09:28:12;;;;;;;;;;;;;;;;;;5053647;28;19915;-61
2021/08/07 09:30:38;;;;;;;;;;;;;;;;;;5052917;28;20014;-61
2021/08/07 09:33:04;;;;;;;;;;;;;;;;;;5053518;28;19917;-61
2021/08/07 09:35:29;;;;;;;;;;;;;;;;;;5053485;28;19924;-62
2021/08/07 09:37:55;;;;;;;;;;;;;;;;;;5053750;28;19923;-61
2021/08/07 09:40:21;;;;;;;;;;;;;;;;;;5053700;28;19916;-62
2021/08/07 09:42:47;;;;;;;;;;;;;;;;;;5052669;28;19919;-61
2021/08/07 09:45:13;;;;;;;;;;;;;;;;;;5053371;28;20390;-61
2021/08/07 09:47:39;;;;;;;;;;;;;;;;;;5053235;28;19939;-61
2021/08/07 09:50:05;;;;;;;;;;;;;;;;;;5053360;28;20011;-62
2021/08/07 09:52:31;;;;;;;;;;;;;;;;;;5053211;28;19940;-62
2021/08/07 09:54:57;;;;;;;;;;;;;;;;;;5052384;28;20376;-61
2021/08/07 09:57:22;;;;;;;;;;;;;;;;;;5052970;28;19935;-61
2021/08/07 09:59:48;;;;;;;;;;;;;;;;;;5052996;28;19995;-61
2021/08/07 10:02:14;;;;;;;;;;;;;;;;;;5052740;28;20000;-61
2021/08/07 10:04:40;;;;;;;;;;;;;;;;;;5037648;28;20412;-61
2021/08/07 10:07:09;;;;;;;;;;;;;;;;;;5052538;28;19913;-61
2021/08/07 10:09:35;;;;;;;;;;;;;;;;;;5052709;28;19927;-61
2021/08/07 10:12:01;;;;;;;;;;;;;;;;;;5052643;28;19917;-61
2021/08/07 10:14:27;;;;;;;;;;;;;;;;;;5052823;28;20372;-61
2021/08/07 10:16:53;;;;;;;;;;;;;;;;;;5052926;28;19916;-61
2021/08/07 10:19:18;;;;;;;;;;;;;;;;;;5052836;28;19912;-62
2021/08/07 10:21:46;;;;;;;;;;;;;;;;;;5051990;28;19919;-61
2021/08/07 10:24:12;;;;;;;;;;;;;;;;;;5052281;28;19912;-61
2021/08/07 10:26:38;;;;;;;;;;;;;;;;;;5052613;28;19939;-61
2021/08/07 10:29:04;;;;;;;;;;;;;;;;;;5052643;28;19956;-61
2021/08/07 10:31:30;;;;;;;;;;;;;;;;;;5052724;28;19908;-61
2021/08/07 10:33:56;;;;;;;;;;;;;;;;;;5052211;28;19928;-61
2021/08/07 10:36:23;;;;;;;;;;;;;;;;;;5052046;28;20388;-61
2021/08/07 10:38:49;;;;;;;;;;;;;;;;;;5052319;28;20284;-61
2021/08/07 10:41:15;;;;;;;;;;;;;;;;;;5052070;28;19920;-61
2021/08/07 10:43:40;;;;;;;;;;;;;;;;;;5037183;28;20288;-62
2021/08/07 10:46:06;;;;;;;;;;;;;;;;;;5051406;28;19958;-62
2021/08/07 10:48:32;;;;;;;;;;;;;;;;;;5052050;28;20261;-62
2021/08/07 10:50:58;;;;;;;;;;;;;;;;;;5052146;28;19917;-61
2021/08/07 10:53:25;;;;;;;;;;;;;;;;;;5051529;28;19921;-61
2021/08/07 10:55:51;;;;;;;;;;;;;;;;;;5051675;28;20042;-61
2021/08/07 10:58:16;;;;;;;;;;;;;;;;;;5052447;28;20002;-61
2021/08/07 11:00:42;;;;;;;;;;;;;;;;;;5052040;28;20005;-61
2021/08/07 11:03:08;;;;;;;;;;;;;;;;;;5051951;28;19960;-62
2021/08/07 11:05:34;;;;;;;;;;;;;;;;;;5032481;28;20369;-61
2021/08/07 11:08:00;;;;;;;;;;;;;;;;;;5051739;28;20019;-62
2021/08/07 11:10:26;;;;;;;;;;;;;;;;;;5052679;28;19924;-61
2021/08/07 11:12:52;;;;;;;;;;;;;;;;;;5051638;28;19978;-61
2021/08/07 11:15:17;;;;;;;;;;;;;;;;;;5051698;28;20007;-61
2021/08/07 11:17:44;;;;;;;;;;;;;;;;;;5051219;28;20260;-61
2021/08/07 11:20:10;;;;;;;;;;;;;;;;;;5033672;28;20382;-62
2021/08/07 11:22:36;;;;;;;;;;;;;;;;;;5052075;28;19952;-62
2021/08/07 11:25:02;;;;;;;;;;;;;;;;;;5051549;28;19908;-61
2021/08/07 11:27:28;;;;;;;;;;;;;;;;;;5051209;28;19913;-62
2021/08/07 11:29:54;;;;;;;;;;;;;;;;;;5051240;28;20267;-62
2021/08/07 11:32:20;;;;;;;;;;;;;;;;;;5051700;28;20012;-62
2021/08/07 11:34:45;;;;;;;;;;;;;;;;;;5051746;28;20426;-61
2021/08/07 11:37:12;;;;;;;;;;;;;;;;;;5051189;28;19913;-61
2021/08/07 11:39:38;;;;;;;;;;;;;;;;;;5051520;28;19916;-62
2021/08/07 11:42:04;;;;;;;;;;;;;;;;;;5051033;28;19917;-61
2021/08/07 11:44:30;;;;;;;;;;;;;;;;;;5051514;28;19908;-62
2021/08/07 11:46:56;;;;;;;;;;;;;;;;;;5051298;28;20407;-62
2021/08/07 11:49:21;;;;;;;;;;;;;;;;;;5051776;28;19913;-62
2021/08/07 11:51:47;;;;;;;;;;;;;;;;;;5050983;28;19913;-62
2021/08/07 11:54:13;;;;;;;;;;;;;;;;;;5050847;28;19931;-62
2021/08/07 11:56:39;;;;;;;;;;;;;;;;;;5051316;28;19923;-62
2021/08/07 11:59:05;;;;;;;;;;;;;;;;;;5050774;28;19924;-61
2021/08/07 12:01:31;;;;;;;;;;;;;;;;;;5051867;28;19956;-61
2021/08/07 12:03:57;;;;;;;;;;;;;;;;;;5050537;28;19913;-61
2021/08/07 12:06:23;;;;;;;;;;;;;;;;;;5051109;28;19963;-61
2021/08/07 12:08:49;;;;;;;;;;;;;;;;;;5051064;28;19920;-62
2021/08/07 12:11:15;;;;;;;;;;;;;;;;;;5051265;28;19919;-62
2021/08/07 12:13:41;;;;;;;;;;;;;;;;;;5051430;28;20338;-62
2021/08/07 12:16:07;;;;;;;;;;;;;;;;;;5051223;28;20382;-61
2021/08/07 12:18:33;;;;;;;;;;;;;;;;;;5054734;28;19912;-61
2021/08/07 12:20:59;;;;;;;;;;;;;;;;;;5055011;28;19919;-61
2021/08/07 12:23:25;;;;;;;;;;;;;;;;;;5054830;28;19992;-61
2021/08/07 12:25:51;;;;;;;;;;;;;;;;;;5054634;28;19913;-62
2021/08/07 12:28:17;;;;;;;;;;;;;;;;;;5054951;28;19909;-62
2021/08/07 12:30:42;;;;;;;;;;;;;;;;;;5054631;28;19948;-62
2021/08/07 12:33:08;;;;;;;;;;;;;;;;;;5054123;28;19975;-60
2021/08/07 12:35:34;;;;;;;;;;;;;;;;;;5054714;28;20381;-62
2021/08/07 12:38:00;;;;;;;;;;;;;;;;;;5054123;28;19913;-62
2021/08/07 12:40:26;;;;;;;;;;;;;;;;;;5055113;28;19979;-62
2021/08/07 12:42:52;;;;;;;;;;;;;;;;;;5054528;28;19912;-62
2021/08/07 12:45:18;;;;;;;;;;;;;;;;;;5054020;28;19913;-62
2021/08/07 12:47:44;;;;;;;;;;;;;;;;;;5054190;28;19913;-61
2021/08/07 12:50:10;;;;;;;;;;;;;;;;;;5054316;28;19939;-62
2021/08/07 12:52:36;;;;;;;;;;;;;;;;;;5054623;28;20368;-61
2021/08/07 12:55:01;;;;;;;;;;;;;;;;;;5053888;28;19928;-61
2021/08/07 12:57:27;;;;;;;;;;;;;;;;;;5053769;28;19913;-61
2021/08/07 12:59:53;;;;;;;;;;;;;;;;;;5053828;28;19956;-61
2021/08/07 13:02:21;;;;;;;;;;;;;;;;;;5053955;28;20378;-61
2021/08/07 13:04:46;;;;;;;;;;;;;;;;;;5054219;28;19958;-61
2021/08/07 13:07:16;;;;;;;;;;;;;;;;;;5054032;28;19948;-61
2021/08/07 13:09:42;;;;;;;;;;;;;;;;;;5053491;28;19913;-62
2021/08/07 13:12:08;;;;;;;;;;;;;;;;;;5053954;28;19940;-61
2021/08/07 13:14:34;;;;;;;;;;;;;;;;;;5053459;28;19921;-61
2021/08/07 13:17:00;;;;;;;;;;;;;;;;;;5053671;28;19912;-61
2021/08/07 13:19:26;;;;;;;;;;;;;;;;;;5054123;28;19909;-61
2021/08/07 13:21:52;;;;;;;;;;;;;;;;;;5053785;28;19959;-61
2021/08/07 13:24:18;;;;;;;;;;;;;;;;;;5053587;28;20072;-60
2021/08/07 13:26:44;;;;;;;;;;;;;;;;;;5053631;28;20688;-62
2021/08/07 13:29:10;;;;;;;;;;;;;;;;;;5052787;28;19916;-59
2021/08/07 13:31:35;;;;;;;;;;;;;;;;;;5053680;28;19908;-62
2021/08/07 13:34:01;;;;;;;;;;;;;;;;;;5053346;28;20497;-59
2021/08/07 13:36:27;;;;;;;;;;;;;;;;;;5053360;28;19920;-60
2021/08/07 13:38:53;;;;;;;;;;;;;;;;;;5053314;28;19913;-60
2021/08/07 13:41:19;;;;;;;;;;;;;;;;;;5053108;28;19932;-62
2021/08/07 13:43:45;;;;;;;;;;;;;;;;;;5053538;28;20289;-61
2021/08/07 13:46:11;;;;;;;;;;;;;;;;;;5052836;28;19913;-61
2021/08/07 13:48:37;;;;;;;;;;;;;;;;;;5053116;28;19913;-61
2021/08/07 13:51:02;;;;;;;;;;;;;;;;;;5053122;28;19913;-62
2021/08/07 13:53:28;;;;;;;;;;;;;;;;;;5034840;28;19924;-61
2021/08/07 13:55:54;;;;;;;;;;;;;;;;;;5052886;28;20273;-62
2021/08/07 13:58:20;;;;;;;;;;;;;;;;;;5053192;28;20015;-61
2021/08/07 14:00:46;;;;;;;;;;;;;;;;;;5052719;28;19956;-62
2021/08/07 14:03:14;;;;;;;;;;;;;;;;;;5052972;28;19940;-61
2021/08/07 14:05:40;;;;;;;;;;;;;;;;;;5052400;28;20276;-62
2021/08/07 14:08:06;;;;;;;;;;;;;;;;;;5052817;28;19921;-62
2021/08/07 14:10:31;;;;;;;;;;;;;;;;;;5053199;28;19913;-62
2021/08/07 14:12:57;;;;;;;;;;;;;;;;;;5052256;28;19908;-62
2021/08/07 14:15:23;;;;;;;;;;;;;;;;;;5052286;28;19920;-62
2021/08/07 14:17:49;;;;;;;;;;;;;;;;;;5052760;28;19909;-62
2021/08/07 14:20:15;;;;;;;;;;;;;;;;;;5052415;28;19913;-61
2021/08/07 14:22:41;;;;;;;;;;;;;;;;;;5053340;28;19919;-62
2021/08/07 14:25:07;;;;;;;;;;;;;;;;;;5052406;28;19949;-61
2021/08/07 14:27:33;;;;;;;;;;;;;;;;;;5052052;28;19924;-61
2021/08/07 14:29:59;;;;;;;;;;;;;;;;;;5051860;28;20050;-61
2021/08/07 14:32:25;;;;;;;;;;;;;;;;;;5052519;28;20009;-61
2021/08/07 14:34:50;;;;;;;;;;;;;;;;;;5052375;28;20376;-61
2021/08/07 14:37:16;;;;;;;;;;;;;;;;;;5052651;28;19920;-61
2021/08/07 14:39:42;;;;;;;;;;;;;;;;;;5050982;28;20394;-61
2021/08/07 14:42:08;;;;;;;;;;;;;;;;;;5052123;28;19948;-61
2021/08/07 14:44:34;;;;;;;;;;;;;;;;;;5051997;28;19944;-61
2021/08/07 14:47:00;;;;;;;;;;;;;;;;;;5052256;28;19913;-61
2021/08/07 14:49:26;;;;;;;;;;;;;;;;;;5052334;28;19947;-61
2021/08/07 14:51:56;;;;;;;;;;;;;;;;;;5051840;28;19909;-61
2021/08/07 14:54:21;;;;;;;;;;;;;;;;;;5033811;28;19971;-62
2021/08/07 14:56:47;;;;;;;;;;;;;;;;;;5051475;28;19971;-62
2021/08/07 14:59:13;;;;;;;;;;;;;;;;;;5051863;28;19912;-62
2021/08/07 15:01:39;;;;;;;;;;;;;;;;;;5052678;28;20283;-62
2021/08/07 15:04:05;;;;;;;;;;;;;;;;;;5051407;28;19967;-61
2021/08/07 15:06:31;;;;;;;;;;;;;;;;;;5051926;28;19982;-61
2021/08/07 15:08:57;;;;;;;;;;;;;;;;;;5051475;28;19919;-61
2021/08/07 15:11:22;;;;;;;;;;;;;;;;;;5051850;28;20249;-61
2021/08/07 15:13:48;;;;;;;;;;;;;;;;;;5051249;28;19960;-62
2021/08/07 15:16:14;;;;;;;;;;;;;;;;;;5052088;28;19916;-62
2021/08/07 15:18:40;;;;;;;;;;;;;;;;;;5051749;28;19912;-69
2021/08/07 15:21:06;;;;;;;;;;;;;;;;;;5051682;28;19912;-69
2021/08/07 15:23:32;;;;;;;;;;;;;;;;;;5050932;28;19932;-70
2021/08/07 15:25:58;;;;;;;;;;;;;;;;;;5051567;28;19909;-70
2021/08/07 15:28:24;;;;;;;;;;;;;;;;;;5051884;28;20275;-69
2021/08/07 15:30:53;;;;;;;;;;;;;;;;;;5050564;28;20270;-69
2021/08/07 15:33:19;;;;;;;;;;;;;;;;;;5051258;28;19917;-68
2021/08/07 15:35:45;;;;;;;;;;;;;;;;;;5033550;28;20387;-69
2021/08/07 15:38:11;;;;;;;;;;;;;;;;;;5051557;28;19913;-69
2021/08/07 15:40:37;;;;;;;;;;;;;;;;;;5052378;28;19909;-69
2021/08/07 15:43:03;;;;;;;;;;;;;;;;;;5050741;28;19956;-69
2021/08/07 15:45:28;;;;;;;;;;;;;;;;;;5050732;28;19913;-69
2021/08/07 15:47:54;;;;;;;;;;;;;;;;;;5051297;28;19913;-69
2021/08/07 15:50:20;;;;;;;;;;;;;;;;;;5051335;28;20439;-69
2021/08/07 15:52:46;;;;;;;;;;;;;;;;;;5054999;28;19909;-69
2021/08/07 15:55:12;;;;;;;;;;;;;;;;;;5055021;28;20331;-69
2021/08/07 15:57:38;;;;;;;;;;;;;;;;;;5054595;28;19924;-69
2021/08/07 16:00:04;;;;;;;;;;;;;;;;;;5055018;28;19913;-69
2021/08/07 16:02:30;;;;;;;;;;;;;;;;;;5055116;28;19955;-68
2021/08/07 16:04:56;;;;;;;;;;;;;;;;;;5054905;28;19908;-69
2021/08/07 16:07:22;;;;;;;;;;;;;;;;;;5055170;28;19960;-68
2021/08/07 16:09:48;;;;;;;;;;;;;;;;;;5054891;28;19920;-70
2021/08/07 16:12:13;;;;;;;;;;;;;;;;;;5054725;28;19948;-68
2021/08/07 16:14:39;;;;;;;;;;;;;;;;;;5054684;28;19924;-68
2021/08/07 16:17:05;;;;;;;;;;;;;;;;;;5054672;28;20082;-69
2021/08/07 16:19:31;;;;;;;;;;;;;;;;;;5055177;28;19909;-69
2021/08/07 16:21:57;;;;;;;;;;;;;;;;;;5054446;28;20283;-67
2021/08/07 16:24:23;;;;;;;;;;;;;;;;;;5054553;28;19972;-67
2021/08/07 16:26:49;;;;;;;;;;;;;;;;;;5054462;28;19963;-67
2021/08/07 16:29:15;;;;;;;;;;;;;;;;;;5055053;28;19913;-67
2021/08/07 16:31:40;;;;;;;;;;;;;;;;;;5050723;28;20002;-67
2021/08/07 16:34:06;;;;;;;;;;;;;;;;;;5054234;28;19921;-68
2021/08/07 16:36:32;;;;;;;;;;;;;;;;;;5036181;28;20015;-68